sensor_id;sensor_type;location;lat;lon;timestamp;temperature;humidity
14182;DHT22;7171;50.936;6.764;2023-12-04T00:01:49;2.30;99.90
14182;DHT22;7171;50.936;6.764;2023-12-04T00:04:17;2.30;99.90
14182;DHT22;7171;50.936;6.764;2023-12-04T00:06:43;2.30;99.90
14182;DHT22;7171;50.936;6.764;2023-12-04T00:09:10;2.30;99.90
14182;DHT22;7171;50.936;6.764;2023-12-04T00:11:37;2.30;99.90
14182;DHT22;7171;50.936;6.764;2023-12-04T00:14:04;2.30;99.90
14182;DHT22;7171;50.936;6.764;2023-12-04T00:16:33;2.30;99.90
14182;DHT22;7171;50.936;6.764;2023-12-04T00:19:00;2.30;99.90
14182;DHT22;7171;50.936;6.764;2023-12-04T00:21:28;2.30;99.90
14182;DHT22;7171;50.936;6.764;2023-12-04T00:23:55;2.30;99.90
14182;DHT22;7171;50.936;6.764;2023-12-04T00:26:22;2.30;99.90
14182;DHT22;7171;50.936;6.764;2023-12-04T00:28:49;2.30;99.90
14182;DHT22;7171;50.936;6.764;2023-12-04T00:31:15;2.30;99.90
14182;DHT22;7171;50.936;6.764;2023-12-04T00:33:42;2.30;99.90
14182;DHT22;7171;50.936;6.764;2023-12-04T00:36:10;2.30;99.90
14182;DHT22;7171;50.936;6.764;2023-12-04T00:38:38;2.40;99.90
14182;DHT22;7171;50.936;6.764;2023-12-04T00:41:05;2.40;99.90
14182;DHT22;7171;50.936;6.764;2023-12-04T00:43:32;2.40;99.90
14182;DHT22;7171;50.936;6.764;2023-12-04T00:45:59;2.40;99.90
14182;DHT22;7171;50.936;6.764;2023-12-04T00:48:25;2.40;99.90
14182;DHT22;7171;50.936;6.764;2023-12-04T00:50:53;2.40;99.90
14182;DHT22;7171;50.936;6.764;2023-12-04T00:53:19;2.30;99.90
14182;DHT22;7171;50.936;6.764;2023-12-04T00:55:47;2.30;99.90
14182;DHT22;7171;50.936;6.764;2023-12-04T00:58:14;2.30;99.90
14182;DHT22;7171;50.936;6.764;2023-12-04T01:00:41;2.30;99.90
14182;DHT22;7171;50.936;6.764;2023-12-04T01:03:08;2.30;99.90
14182;DHT22;7171;50.936;6.764;2023-12-04T01:05:34;2.30;99.90
14182;DHT22;7171;50.936;6.764;2023-12-04T01:08:01;2.30;99.90
14182;DHT22;7171;50.936;6.764;2023-12-04T01:10:28;2.30;99.90
14182;DHT22;7171;50.936;6.764;2023-12-04T01:12:56;2.30;99.90
14182;DHT22;7171;50.936;6.764;2023-12-04T01:15:23;2.30;99.90
14182;DHT22;7171;50.936;6.764;2023-12-04T01:17:50;2.30;99.90
14182;DHT22;7171;50.936;6.764;2023-12-04T01:20:16;2.30;99.90
14182;DHT22;7171;50.936;6.764;2023-12-04T01:22:43;2.30;99.90
14182;DHT22;7171;50.936;6.764;2023-12-04T01:25:10;2.30;99.90
14182;DHT22;7171;50.936;6.764;2023-12-04T01:27:37;2.20;99.90
14182;DHT22;7171;50.936;6.764;2023-12-04T01:30:06;2.30;99.90
14182;DHT22;7171;50.936;6.764;2023-12-04T01:32:34;2.30;99.90
14182;DHT22;7171;50.936;6.764;2023-12-04T01:35:01;2.20;99.90
14182;DHT22;7171;50.936;6.764;2023-12-04T01:37:28;2.30;99.90
14182;DHT22;7171;50.936;6.764;2023-12-04T01:39:55;2.30;99.90
14182;DHT22;7171;50.936;6.764;2023-12-04T01:42:22;2.20;99.90
14182;DHT22;7171;50.936;6.764;2023-12-04T01:44:48;2.20;99.90
14182;DHT22;7171;50.936;6.764;2023-12-04T01:47:17;2.20;99.90
14182;DHT22;7171;50.936;6.764;2023-12-04T01:49:45;2.20;99.90
14182;DHT22;7171;50.936;6.764;2023-12-04T01:52:11;2.30;99.90
14182;DHT22;7171;50.936;6.764;2023-12-04T01:54:38;2.20;99.90
14182;DHT22;7171;50.936;6.764;2023-12-04T01:57:06;2.20;99.90
14182;DHT22;7171;50.936;6.764;2023-12-04T01:59:33;2.20;99.90
14182;DHT22;7171;50.936;6.764;2023-12-04T02:02:00;2.20;99.90
14182;DHT22;7171;50.936;6.764;2023-12-04T02:04:30;2.30;99.90
14182;DHT22;7171;50.936;6.764;2023-12-04T02:06:57;2.30;99.90
14182;DHT22;7171;50.936;6.764;2023-12-04T02:09:24;2.30;99.90
14182;DHT22;7171;50.936;6.764;2023-12-04T02:11:52;2.30;99.90
14182;DHT22;7171;50.936;6.764;2023-12-04T02:14:19;2.30;99.90
14182;DHT22;7171;50.936;6.764;2023-12-04T02:16:46;2.30;99.90
14182;DHT22;7171;50.936;6.764;2023-12-04T02:19:14;2.30;99.90
14182;DHT22;7171;50.936;6.764;2023-12-04T02:21:42;2.30;99.90
14182;DHT22;7171;50.936;6.764;2023-12-04T02:24:10;2.30;99.90
14182;DHT22;7171;50.936;6.764;2023-12-04T02:26:44;2.30;99.90
14182;DHT22;7171;50.936;6.764;2023-12-04T02:29:17;2.30;99.90
14182;DHT22;7171;50.936;6.764;2023-12-04T02:31:46;2.30;99.90
14182;DHT22;7171;50.936;6.764;2023-12-04T02:34:14;2.30;99.90
14182;DHT22;7171;50.936;6.764;2023-12-04T02:36:42;2.30;99.90
14182;DHT22;7171;50.936;6.764;2023-12-04T02:39:11;2.30;99.90
14182;DHT22;7171;50.936;6.764;2023-12-04T02:41:38;2.30;99.90
14182;DHT22;7171;50.936;6.764;2023-12-04T02:44:05;2.30;99.90
14182;DHT22;7171;50.936;6.764;2023-12-04T02:46:32;2.30;99.90
14182;DHT22;7171;50.936;6.764;2023-12-04T02:48:58;2.30;99.90
14182;DHT22;7171;50.936;6.764;2023-12-04T02:51:25;2.30;99.90
14182;DHT22;7171;50.936;6.764;2023-12-04T02:53:52;2.30;99.90
14182;DHT22;7171;50.936;6.764;2023-12-04T02:56:20;2.30;99.90
14182;DHT22;7171;50.936;6.764;2023-12-04T02:58:47;2.30;99.90
14182;DHT22;7171;50.936;6.764;2023-12-04T03:01:14;2.30;99.90
14182;DHT22;7171;50.936;6.764;2023-12-04T03:03:40;2.20;99.90
14182;DHT22;7171;50.936;6.764;2023-12-04T03:06:07;2.20;99.90
14182;DHT22;7171;50.936;6.764;2023-12-04T03:08:34;2.20;99.90
14182;DHT22;7171;50.936;6.764;2023-12-04T03:11:01;2.20;99.90
14182;DHT22;7171;50.936;6.764;2023-12-04T03:13:30;2.30;99.90
14182;DHT22;7171;50.936;6.764;2023-12-04T03:15:56;2.30;99.90
14182;DHT22;7171;50.936;6.764;2023-12-04T03:18:23;2.30;99.90
14182;DHT22;7171;50.936;6.764;2023-12-04T03:20:51;2.30;99.90
14182;DHT22;7171;50.936;6.764;2023-12-04T03:23:17;2.30;99.90
14182;DHT22;7171;50.936;6.764;2023-12-04T03:25:44;2.30;99.90
14182;DHT22;7171;50.936;6.764;2023-12-04T03:28:11;2.30;99.90
14182;DHT22;7171;50.936;6.764;2023-12-04T03:30:40;2.30;99.90
14182;DHT22;7171;50.936;6.764;2023-12-04T03:33:08;2.20;99.90
14182;DHT22;7171;50.936;6.764;2023-12-04T03:35:35;2.20;99.90
14182;DHT22;7171;50.936;6.764;2023-12-04T03:38:02;2.20;99.90
14182;DHT22;7171;50.936;6.764;2023-12-04T03:40:28;2.20;99.90
14182;DHT22;7171;50.936;6.764;2023-12-04T03:42:55;2.20;99.90
14182;DHT22;7171;50.936;6.764;2023-12-04T03:45:21;2.20;99.90
14182;DHT22;7171;50.936;6.764;2023-12-04T03:47:49;2.20;99.90
14182;DHT22;7171;50.936;6.764;2023-12-04T03:50:16;2.20;99.90
14182;DHT22;7171;50.936;6.764;2023-12-04T03:52:42;2.20;99.90
14182;DHT22;7171;50.936;6.764;2023-12-04T03:55:09;2.20;99.90
14182;DHT22;7171;50.936;6.764;2023-12-04T03:57:36;2.20;99.90
14182;DHT22;7171;50.936;6.764;2023-12-04T04:00:04;2.20;99.90
14182;DHT22;7171;50.936;6.764;2023-12-04T04:02:31;2.20;99.90
14182;DHT22;7171;50.936;6.764;2023-12-04T04:04:59;2.30;99.90
14182;DHT22;7171;50.936;6.764;2023-12-04T04:07:26;2.30;99.90
14182;DHT22;7171;50.936;6.764;2023-12-04T04:09:53;2.20;99.90
14182;DHT22;7171;50.936;6.764;2023-12-04T04:12:19;2.20;99.90
14182;DHT22;7171;50.936;6.764;2023-12-04T04:14:46;2.20;99.90
14182;DHT22;7171;50.936;6.764;2023-12-04T04:17:13;2.20;99.90
14182;DHT22;7171;50.936;6.764;2023-12-04T04:19:40;2.20;99.90
14182;DHT22;7171;50.936;6.764;2023-12-04T04:22:08;2.20;99.90
14182;DHT22;7171;50.936;6.764;2023-12-04T04:24:35;2.20;99.90
14182;DHT22;7171;50.936;6.764;2023-12-04T04:27:02;2.10;99.90
14182;DHT22;7171;50.936;6.764;2023-12-04T04:29:29;2.10;99.90
14182;DHT22;7171;50.936;6.764;2023-12-04T04:31:55;2.10;99.90
14182;DHT22;7171;50.936;6.764;2023-12-04T04:34:22;2.10;99.90
14182;DHT22;7171;50.936;6.764;2023-12-04T04:36:49;2.10;99.90
14182;DHT22;7171;50.936;6.764;2023-12-04T04:39:17;2.10;99.90
14182;DHT22;7171;50.936;6.764;2023-12-04T04:41:44;2.10;99.90
14182;DHT22;7171;50.936;6.764;2023-12-04T04:44:11;2.10;99.90
14182;DHT22;7171;50.936;6.764;2023-12-04T04:46:37;2.10;99.90
14182;DHT22;7171;50.936;6.764;2023-12-04T04:49:04;2.10;99.90
14182;DHT22;7171;50.936;6.764;2023-12-04T04:51:32;2.10;99.90
14182;DHT22;7171;50.936;6.764;2023-12-04T04:53:59;2.10;99.90
14182;DHT22;7171;50.936;6.764;2023-12-04T04:56:27;2.10;99.90
14182;DHT22;7171;50.936;6.764;2023-12-04T04:58:55;2.10;99.90
14182;DHT22;7171;50.936;6.764;2023-12-04T05:01:22;2.10;99.90
14182;DHT22;7171;50.936;6.764;2023-12-04T05:03:48;2.10;99.90
14182;DHT22;7171;50.936;6.764;2023-12-04T05:06:15;2.10;99.90
14182;DHT22;7171;50.936;6.764;2023-12-04T05:08:42;2.10;99.90
14182;DHT22;7171;50.936;6.764;2023-12-04T05:11:09;2.10;99.90
14182;DHT22;7171;50.936;6.764;2023-12-04T05:13:37;2.00;99.90
14182;DHT22;7171;50.936;6.764;2023-12-04T05:16:05;2.00;99.90
14182;DHT22;7171;50.936;6.764;2023-12-04T05:18:31;2.00;99.90
14182;DHT22;7171;50.936;6.764;2023-12-04T05:20:58;2.00;99.90
14182;DHT22;7171;50.936;6.764;2023-12-04T05:23:25;2.00;99.90
14182;DHT22;7171;50.936;6.764;2023-12-04T05:25:52;2.00;99.90
14182;DHT22;7171;50.936;6.764;2023-12-04T05:28:18;2.00;99.90
14182;DHT22;7171;50.936;6.764;2023-12-04T05:30:46;2.00;99.90
14182;DHT22;7171;50.936;6.764;2023-12-04T05:33:13;2.00;99.90
14182;DHT22;7171;50.936;6.764;2023-12-04T05:35:40;2.00;99.90
14182;DHT22;7171;50.936;6.764;2023-12-04T05:38:07;2.10;99.90
14182;DHT22;7171;50.936;6.764;2023-12-04T05:40:34;2.10;99.90
14182;DHT22;7171;50.936;6.764;2023-12-04T05:43:00;2.10;99.90
14182;DHT22;7171;50.936;6.764;2023-12-04T05:45:27;2.10;99.90
14182;DHT22;7171;50.936;6.764;2023-12-04T05:47:55;2.10;99.90
14182;DHT22;7171;50.936;6.764;2023-12-04T05:50:22;2.10;99.90
14182;DHT22;7171;50.936;6.764;2023-12-04T05:52:50;2.10;99.90
14182;DHT22;7171;50.936;6.764;2023-12-04T05:55:17;2.10;99.90
14182;DHT22;7171;50.936;6.764;2023-12-04T05:57:45;2.10;99.90
14182;DHT22;7171;50.936;6.764;2023-12-04T06:00:13;2.10;99.90
14182;DHT22;7171;50.936;6.764;2023-12-04T06:02:41;2.10;99.90
14182;DHT22;7171;50.936;6.764;2023-12-04T06:05:10;2.10;99.90
14182;DHT22;7171;50.936;6.764;2023-12-04T06:07:37;2.10;99.90
14182;DHT22;7171;50.936;6.764;2023-12-04T06:10:05;2.10;99.90
14182;DHT22;7171;50.936;6.764;2023-12-04T06:12:32;2.20;99.90
14182;DHT22;7171;50.936;6.764;2023-12-04T06:14:59;2.20;99.90
14182;DHT22;7171;50.936;6.764;2023-12-04T06:17:26;2.20;99.90
14182;DHT22;7171;50.936;6.764;2023-12-04T06:19:53;2.20;99.90
14182;DHT22;7171;50.936;6.764;2023-12-04T06:22:22;2.30;99.90
14182;DHT22;7171;50.936;6.764;2023-12-04T06:24:49;2.30;99.90
14182;DHT22;7171;50.936;6.764;2023-12-04T06:27:17;2.30;99.90
14182;DHT22;7171;50.936;6.764;2023-12-04T06:29:46;2.30;99.90
14182;DHT22;7171;50.936;6.764;2023-12-04T06:32:13;2.30;99.90
14182;DHT22;7171;50.936;6.764;2023-12-04T06:34:41;2.30;99.90
14182;DHT22;7171;50.936;6.764;2023-12-04T06:37:10;2.30;99.90
14182;DHT22;7171;50.936;6.764;2023-12-04T06:39:39;2.30;99.90
14182;DHT22;7171;50.936;6.764;2023-12-04T06:42:07;2.30;99.90
14182;DHT22;7171;50.936;6.764;2023-12-04T06:44:35;2.30;99.90
14182;DHT22;7171;50.936;6.764;2023-12-04T06:47:03;2.40;99.90
14182;DHT22;7171;50.936;6.764;2023-12-04T06:49:32;2.40;99.90
14182;DHT22;7171;50.936;6.764;2023-12-04T06:52:00;2.40;99.90
14182;DHT22;7171;50.936;6.764;2023-12-04T06:54:26;2.40;99.90
14182;DHT22;7171;50.936;6.764;2023-12-04T06:56:54;2.30;99.90
14182;DHT22;7171;50.936;6.764;2023-12-04T06:59:21;2.30;99.90
14182;DHT22;7171;50.936;6.764;2023-12-04T07:01:48;2.30;99.90
14182;DHT22;7171;50.936;6.764;2023-12-04T07:04:15;2.30;99.90
14182;DHT22;7171;50.936;6.764;2023-12-04T07:06:46;2.30;99.90
14182;DHT22;7171;50.936;6.764;2023-12-04T07:09:13;2.30;99.90
14182;DHT22;7171;50.936;6.764;2023-12-04T07:11:40;2.30;99.90
14182;DHT22;7171;50.936;6.764;2023-12-04T07:14:09;2.30;99.90
14182;DHT22;7171;50.936;6.764;2023-12-04T07:16:39;2.20;99.90
14182;DHT22;7171;50.936;6.764;2023-12-04T07:19:06;2.20;99.90
14182;DHT22;7171;50.936;6.764;2023-12-04T07:21:33;2.20;99.90
14182;DHT22;7171;50.936;6.764;2023-12-04T07:24:00;2.20;99.90
14182;DHT22;7171;50.936;6.764;2023-12-04T07:26:27;2.20;99.90
14182;DHT22;7171;50.936;6.764;2023-12-04T07:28:53;2.30;99.90
14182;DHT22;7171;50.936;6.764;2023-12-04T07:31:22;2.30;99.90
14182;DHT22;7171;50.936;6.764;2023-12-04T07:33:48;2.30;99.90
14182;DHT22;7171;50.936;6.764;2023-12-04T07:36:15;2.30;99.90
14182;DHT22;7171;50.936;6.764;2023-12-04T07:38:42;2.30;99.90
14182;DHT22;7171;50.936;6.764;2023-12-04T07:41:08;2.30;99.90
14182;DHT22;7171;50.936;6.764;2023-12-04T07:43:36;2.30;99.90
14182;DHT22;7171;50.936;6.764;2023-12-04T07:46:03;2.40;99.90
14182;DHT22;7171;50.936;6.764;2023-12-04T07:48:31;2.40;99.90
14182;DHT22;7171;50.936;6.764;2023-12-04T07:50:58;2.40;99.90
14182;DHT22;7171;50.936;6.764;2023-12-04T07:53:25;2.40;99.90
14182;DHT22;7171;50.936;6.764;2023-12-04T07:55:51;2.40;99.90
14182;DHT22;7171;50.936;6.764;2023-12-04T07:58:18;2.50;99.90
14182;DHT22;7171;50.936;6.764;2023-12-04T08:00:45;2.50;99.90
14182;DHT22;7171;50.936;6.764;2023-12-04T08:03:12;2.50;99.90
14182;DHT22;7171;50.936;6.764;2023-12-04T08:05:40;2.50;99.90
14182;DHT22;7171;50.936;6.764;2023-12-04T08:08:06;2.50;99.90
14182;DHT22;7171;50.936;6.764;2023-12-04T08:10:33;2.50;99.90
14182;DHT22;7171;50.936;6.764;2023-12-04T08:13:00;2.60;99.90
14182;DHT22;7171;50.936;6.764;2023-12-04T08:15:27;2.60;99.90
14182;DHT22;7171;50.936;6.764;2023-12-04T08:17:54;2.60;99.90
14182;DHT22;7171;50.936;6.764;2023-12-04T08:20:21;2.60;99.90
14182;DHT22;7171;50.936;6.764;2023-12-04T08:22:49;2.60;99.90
14182;DHT22;7171;50.936;6.764;2023-12-04T08:25:16;2.70;99.90
14182;DHT22;7171;50.936;6.764;2023-12-04T08:27:42;2.70;99.90
14182;DHT22;7171;50.936;6.764;2023-12-04T08:30:10;2.70;99.90
14182;DHT22;7171;50.936;6.764;2023-12-04T08:32:36;2.70;99.90
14182;DHT22;7171;50.936;6.764;2023-12-04T08:35:04;2.70;99.90
14182;DHT22;7171;50.936;6.764;2023-12-04T08:37:31;2.70;99.90
14182;DHT22;7171;50.936;6.764;2023-12-04T08:39:59;2.70;99.90
14182;DHT22;7171;50.936;6.764;2023-12-04T08:42:26;2.80;99.90
14182;DHT22;7171;50.936;6.764;2023-12-04T08:44:53;2.80;99.90
14182;DHT22;7171;50.936;6.764;2023-12-04T08:47:20;2.80;99.90
14182;DHT22;7171;50.936;6.764;2023-12-04T08:49:47;2.80;99.90
14182;DHT22;7171;50.936;6.764;2023-12-04T08:52:13;2.80;99.90
14182;DHT22;7171;50.936;6.764;2023-12-04T08:54:40;2.80;99.90
14182;DHT22;7171;50.936;6.764;2023-12-04T08:57:09;2.80;99.90
14182;DHT22;7171;50.936;6.764;2023-12-04T08:59:35;2.80;99.90
14182;DHT22;7171;50.936;6.764;2023-12-04T09:02:02;2.80;99.90
14182;DHT22;7171;50.936;6.764;2023-12-04T09:04:29;2.80;99.90
14182;DHT22;7171;50.936;6.764;2023-12-04T09:06:56;2.80;99.90
14182;DHT22;7171;50.936;6.764;2023-12-04T09:09:23;2.80;99.90
14182;DHT22;7171;50.936;6.764;2023-12-04T09:11:50;2.80;99.90
14182;DHT22;7171;50.936;6.764;2023-12-04T09:14:18;2.80;99.90
14182;DHT22;7171;50.936;6.764;2023-12-04T09:16:45;2.80;99.90
14182;DHT22;7171;50.936;6.764;2023-12-04T09:19:12;2.80;99.90
14182;DHT22;7171;50.936;6.764;2023-12-04T09:21:39;2.80;99.90
14182;DHT22;7171;50.936;6.764;2023-12-04T09:24:06;2.80;99.90
14182;DHT22;7171;50.936;6.764;2023-12-04T09:26:33;2.80;99.90
14182;DHT22;7171;50.936;6.764;2023-12-04T09:28:59;2.80;99.90
14182;DHT22;7171;50.936;6.764;2023-12-04T09:31:28;2.80;99.90
14182;DHT22;7171;50.936;6.764;2023-12-04T09:33:54;2.80;99.90
14182;DHT22;7171;50.936;6.764;2023-12-04T09:36:21;2.80;99.90
14182;DHT22;7171;50.936;6.764;2023-12-04T09:38:48;2.80;99.90
14182;DHT22;7171;50.936;6.764;2023-12-04T09:41:15;2.90;99.90
14182;DHT22;7171;50.936;6.764;2023-12-04T09:43:43;2.90;99.90
14182;DHT22;7171;50.936;6.764;2023-12-04T09:46:11;2.90;99.90
14182;DHT22;7171;50.936;6.764;2023-12-04T09:48:40;2.90;99.90
14182;DHT22;7171;50.936;6.764;2023-12-04T09:51:09;2.90;99.90
14182;DHT22;7171;50.936;6.764;2023-12-04T09:53:36;2.90;99.90
14182;DHT22;7171;50.936;6.764;2023-12-04T09:56:03;3.00;99.90
14182;DHT22;7171;50.936;6.764;2023-12-04T09:58:31;2.90;99.90
14182;DHT22;7171;50.936;6.764;2023-12-04T10:00:59;3.00;99.90
14182;DHT22;7171;50.936;6.764;2023-12-04T10:03:26;3.00;99.90
14182;DHT22;7171;50.936;6.764;2023-12-04T10:05:54;3.00;99.90
14182;DHT22;7171;50.936;6.764;2023-12-04T10:08:21;3.00;99.90
14182;DHT22;7171;50.936;6.764;2023-12-04T10:10:48;3.00;99.90
14182;DHT22;7171;50.936;6.764;2023-12-04T10:13:15;3.00;99.90
14182;DHT22;7171;50.936;6.764;2023-12-04T10:15:51;3.00;99.90
14182;DHT22;7171;50.936;6.764;2023-12-04T10:18:24;3.00;99.90
14182;DHT22;7171;50.936;6.764;2023-12-04T10:20:52;3.00;99.90
14182;DHT22;7171;50.936;6.764;2023-12-04T10:23:21;3.00;99.90
14182;DHT22;7171;50.936;6.764;2023-12-04T10:25:48;3.00;99.90
14182;DHT22;7171;50.936;6.764;2023-12-04T10:28:17;3.00;99.90
14182;DHT22;7171;50.936;6.764;2023-12-04T10:30:45;3.00;99.90
14182;DHT22;7171;50.936;6.764;2023-12-04T10:33:12;3.10;99.90
14182;DHT22;7171;50.936;6.764;2023-12-04T10:35:39;3.10;99.90
14182;DHT22;7171;50.936;6.764;2023-12-04T10:38:07;3.10;99.90
14182;DHT22;7171;50.936;6.764;2023-12-04T10:40:36;3.10;99.90
14182;DHT22;7171;50.936;6.764;2023-12-04T10:43:16;3.10;99.90
14182;DHT22;7171;50.936;6.764;2023-12-04T10:45:44;3.20;99.90
14182;DHT22;7171;50.936;6.764;2023-12-04T10:48:13;3.20;99.90
14182;DHT22;7171;50.936;6.764;2023-12-04T10:50:41;3.20;99.90
14182;DHT22;7171;50.936;6.764;2023-12-04T10:53:10;3.20;99.90
14182;DHT22;7171;50.936;6.764;2023-12-04T10:55:40;3.20;99.90
14182;DHT22;7171;50.936;6.764;2023-12-04T10:58:08;3.20;99.90
14182;DHT22;7171;50.936;6.764;2023-12-04T11:00:38;3.20;99.90
14182;DHT22;7171;50.936;6.764;2023-12-04T11:03:09;3.30;99.90
14182;DHT22;7171;50.936;6.764;2023-12-04T11:05:38;3.30;99.90
14182;DHT22;7171;50.936;6.764;2023-12-04T11:08:06;3.30;99.90
14182;DHT22;7171;50.936;6.764;2023-12-04T11:10:34;3.30;99.90
14182;DHT22;7171;50.936;6.764;2023-12-04T11:13:07;3.40;99.90
14182;DHT22;7171;50.936;6.764;2023-12-04T11:15:40;3.30;99.90
14182;DHT22;7171;50.936;6.764;2023-12-04T11:18:09;3.30;99.90
14182;DHT22;7171;50.936;6.764;2023-12-04T11:20:43;3.40;99.90
14182;DHT22;7171;50.936;6.764;2023-12-04T11:23:12;3.40;99.90
14182;DHT22;7171;50.936;6.764;2023-12-04T11:25:40;3.40;99.90
14182;DHT22;7171;50.936;6.764;2023-12-04T11:28:08;3.30;99.90
14182;DHT22;7171;50.936;6.764;2023-12-04T11:30:36;3.30;99.90
14182;DHT22;7171;50.936;6.764;2023-12-04T11:33:05;3.30;99.90
14182;DHT22;7171;50.936;6.764;2023-12-04T11:35:33;3.30;99.90
14182;DHT22;7171;50.936;6.764;2023-12-04T11:38:01;3.30;99.90
14182;DHT22;7171;50.936;6.764;2023-12-04T11:40:29;3.20;99.90
14182;DHT22;7171;50.936;6.764;2023-12-04T11:42:55;3.20;99.90
14182;DHT22;7171;50.936;6.764;2023-12-04T11:45:24;3.20;99.90
14182;DHT22;7171;50.936;6.764;2023-12-04T11:47:53;3.20;99.90
14182;DHT22;7171;50.936;6.764;2023-12-04T11:50:22;3.20;99.90
14182;DHT22;7171;50.936;6.764;2023-12-04T11:52:51;3.20;99.90
14182;DHT22;7171;50.936;6.764;2023-12-04T11:55:20;3.20;99.90
14182;DHT22;7171;50.936;6.764;2023-12-04T11:57:49;3.10;99.90
14182;DHT22;7171;50.936;6.764;2023-12-04T12:00:21;3.10;99.90
14182;DHT22;7171;50.936;6.764;2023-12-04T12:03:01;3.20;99.90
14182;DHT22;7171;50.936;6.764;2023-12-04T12:05:30;3.10;99.90
14182;DHT22;7171;50.936;6.764;2023-12-04T12:08:03;3.10;99.90
14182;DHT22;7171;50.936;6.764;2023-12-04T12:10:30;3.10;99.90
14182;DHT22;7171;50.936;6.764;2023-12-04T12:12:57;3.10;99.90
14182;DHT22;7171;50.936;6.764;2023-12-04T12:15:24;3.10;99.90
14182;DHT22;7171;50.936;6.764;2023-12-04T12:17:52;3.10;99.90
14182;DHT22;7171;50.936;6.764;2023-12-04T12:20:20;3.20;99.90
14182;DHT22;7171;50.936;6.764;2023-12-04T12:22:48;3.20;99.90
14182;DHT22;7171;50.936;6.764;2023-12-04T12:25:15;3.20;99.90
14182;DHT22;7171;50.936;6.764;2023-12-04T12:27:43;3.20;99.90
14182;DHT22;7171;50.936;6.764;2023-12-04T12:30:12;3.20;99.90
14182;DHT22;7171;50.936;6.764;2023-12-04T12:32:38;3.20;99.90
14182;DHT22;7171;50.936;6.764;2023-12-04T12:35:07;3.20;99.90
14182;DHT22;7171;50.936;6.764;2023-12-04T12:37:34;3.20;99.90
14182;DHT22;7171;50.936;6.764;2023-12-04T12:40:01;3.20;99.90
14182;DHT22;7171;50.936;6.764;2023-12-04T12:42:30;3.20;99.90
14182;DHT22;7171;50.936;6.764;2023-12-04T12:45:00;3.20;99.90
14182;DHT22;7171;50.936;6.764;2023-12-04T12:47:28;3.20;99.90
14182;DHT22;7171;50.936;6.764;2023-12-04T12:49:55;3.20;99.90
14182;DHT22;7171;50.936;6.764;2023-12-04T12:52:23;3.20;99.90
14182;DHT22;7171;50.936;6.764;2023-12-04T12:54:50;3.20;99.90
14182;DHT22;7171;50.936;6.764;2023-12-04T12:57:18;3.20;99.90
14182;DHT22;7171;50.936;6.764;2023-12-04T12:59:45;3.20;99.90
14182;DHT22;7171;50.936;6.764;2023-12-04T13:02:12;3.30;99.90
14182;DHT22;7171;50.936;6.764;2023-12-04T13:04:40;3.20;99.90
14182;DHT22;7171;50.936;6.764;2023-12-04T13:07:07;3.20;99.90
14182;DHT22;7171;50.936;6.764;2023-12-04T13:09:36;3.20;99.90
14182;DHT22;7171;50.936;6.764;2023-12-04T13:12:03;3.30;99.90
14182;DHT22;7171;50.936;6.764;2023-12-04T13:14:31;3.30;99.90
14182;DHT22;7171;50.936;6.764;2023-12-04T13:16:58;3.30;99.90
14182;DHT22;7171;50.936;6.764;2023-12-04T13:19:24;3.30;99.90
14182;DHT22;7171;50.936;6.764;2023-12-04T13:21:51;3.30;99.90
14182;DHT22;7171;50.936;6.764;2023-12-04T13:24:18;3.30;99.90
14182;DHT22;7171;50.936;6.764;2023-12-04T13:26:46;3.30;99.90
14182;DHT22;7171;50.936;6.764;2023-12-04T13:29:13;3.30;99.90
14182;DHT22;7171;50.936;6.764;2023-12-04T13:31:42;3.30;99.90
14182;DHT22;7171;50.936;6.764;2023-12-04T13:34:11;3.30;99.90
14182;DHT22;7171;50.936;6.764;2023-12-04T13:36:38;3.30;99.90
14182;DHT22;7171;50.936;6.764;2023-12-04T13:39:06;3.30;99.90
14182;DHT22;7171;50.936;6.764;2023-12-04T13:41:42;3.30;99.90
14182;DHT22;7171;50.936;6.764;2023-12-04T13:44:28;3.40;99.90
14182;DHT22;7171;50.936;6.764;2023-12-04T13:46:55;3.30;99.90
14182;DHT22;7171;50.936;6.764;2023-12-04T13:49:21;3.30;99.90
14182;DHT22;7171;50.936;6.764;2023-12-04T13:51:48;3.30;99.90
14182;DHT22;7171;50.936;6.764;2023-12-04T13:54:15;3.40;99.90
14182;DHT22;7171;50.936;6.764;2023-12-04T13:56:47;3.30;99.90
14182;DHT22;7171;50.936;6.764;2023-12-04T13:59:19;3.50;99.90
14182;DHT22;7171;50.936;6.764;2023-12-04T14:01:49;3.40;99.90
14182;DHT22;7171;50.936;6.764;2023-12-04T14:04:17;3.40;99.90
14182;DHT22;7171;50.936;6.764;2023-12-04T14:06:44;3.40;99.90
14182;DHT22;7171;50.936;6.764;2023-12-04T14:09:11;3.40;99.90
14182;DHT22;7171;50.936;6.764;2023-12-04T14:11:42;3.40;99.90
14182;DHT22;7171;50.936;6.764;2023-12-04T14:14:10;3.40;99.90
14182;DHT22;7171;50.936;6.764;2023-12-04T14:16:38;3.40;99.90
14182;DHT22;7171;50.936;6.764;2023-12-04T14:19:06;3.40;99.90
14182;DHT22;7171;50.936;6.764;2023-12-04T14:21:33;3.40;99.90
14182;DHT22;7171;50.936;6.764;2023-12-04T14:24:00;3.40;99.90
14182;DHT22;7171;50.936;6.764;2023-12-04T14:26:26;3.40;99.90
14182;DHT22;7171;50.936;6.764;2023-12-04T14:28:54;3.40;99.90
14182;DHT22;7171;50.936;6.764;2023-12-04T14:31:23;3.40;99.90
14182;DHT22;7171;50.936;6.764;2023-12-04T14:33:50;3.30;99.90
14182;DHT22;7171;50.936;6.764;2023-12-04T14:36:19;3.80;99.90
14182;DHT22;7171;50.936;6.764;2023-12-04T14:38:46;3.30;99.90
14182;DHT22;7171;50.936;6.764;2023-12-04T14:41:13;3.30;99.90
14182;DHT22;7171;50.936;6.764;2023-12-04T14:43:40;3.30;99.90
14182;DHT22;7171;50.936;6.764;2023-12-04T14:46:08;3.30;99.90
14182;DHT22;7171;50.936;6.764;2023-12-04T14:48:37;3.30;99.90
14182;DHT22;7171;50.936;6.764;2023-12-04T14:51:04;3.40;99.90
14182;DHT22;7171;50.936;6.764;2023-12-04T14:53:32;3.40;99.90
14182;DHT22;7171;50.936;6.764;2023-12-04T14:56:09;3.30;99.90
14182;DHT22;7171;50.936;6.764;2023-12-04T14:58:56;3.40;99.90
14182;DHT22;7171;50.936;6.764;2023-12-04T15:01:43;3.40;99.90
14182;DHT22;7171;50.936;6.764;2023-12-04T15:04:35;3.40;99.90
14182;DHT22;7171;50.936;6.764;2023-12-04T15:07:31;3.40;99.90
14182;DHT22;7171;50.936;6.764;2023-12-04T15:10:21;3.40;99.90
14182;DHT22;7171;50.936;6.764;2023-12-04T15:13:08;3.40;99.90
14182;DHT22;7171;50.936;6.764;2023-12-04T15:15:48;3.40;99.90
14182;DHT22;7171;50.936;6.764;2023-12-04T15:18:40;3.40;99.90
14182;DHT22;7171;50.936;6.764;2023-12-04T15:21:23;3.30;99.90
14182;DHT22;7171;50.936;6.764;2023-12-04T15:23:50;3.30;99.90
14182;DHT22;7171;50.936;6.764;2023-12-04T15:26:17;3.30;99.90
14182;DHT22;7171;50.936;6.764;2023-12-04T15:28:44;3.30;99.90
14182;DHT22;7171;50.936;6.764;2023-12-04T15:31:11;3.30;99.90
14182;DHT22;7171;50.936;6.764;2023-12-04T15:33:37;3.30;99.90
14182;DHT22;7171;50.936;6.764;2023-12-04T15:36:04;3.30;99.90
14182;DHT22;7171;50.936;6.764;2023-12-04T15:38:30;3.30;99.90
14182;DHT22;7171;50.936;6.764;2023-12-04T15:40:56;3.30;99.90
14182;DHT22;7171;50.936;6.764;2023-12-04T15:43:25;3.20;99.90
14182;DHT22;7171;50.936;6.764;2023-12-04T15:45:51;3.30;99.90
14182;DHT22;7171;50.936;6.764;2023-12-04T15:48:18;3.20;99.90
14182;DHT22;7171;50.936;6.764;2023-12-04T15:50:45;3.20;99.90
14182;DHT22;7171;50.936;6.764;2023-12-04T15:53:11;3.30;99.90
14182;DHT22;7171;50.936;6.764;2023-12-04T15:55:38;3.30;99.90
14182;DHT22;7171;50.936;6.764;2023-12-04T15:58:04;3.20;99.90
14182;DHT22;7171;50.936;6.764;2023-12-04T16:00:32;3.30;99.90
14182;DHT22;7171;50.936;6.764;2023-12-04T16:02:58;3.20;99.90
14182;DHT22;7171;50.936;6.764;2023-12-04T16:05:26;3.30;99.90
14182;DHT22;7171;50.936;6.764;2023-12-04T16:07:53;3.30;99.90